sensor_id;sensor_type;location;lat;lon;timestamp;P1;durP1;ratioP1;P2;durP2;ratioP2
57155;SDS011;43023;59.928;10.682;2023-02-27T03:02:27;2.67;;;2.20;;
57155;SDS011;43023;59.928;10.682;2023-02-27T03:07:22;2.92;;;1.90;;
57155;SDS011;43023;59.928;10.682;2023-02-27T03:09:51;2.47;;;1.92;;
57155;SDS011;43023;59.928;10.682;2023-02-27T03:12:19;3.95;;;2.30;;
57155;SDS011;43023;59.928;10.682;2023-02-27T03:14:49;2.97;;;1.85;;
57155;SDS011;43023;59.928;10.682;2023-02-27T03:17:19;2.30;;;1.88;;
57155;SDS011;43023;59.928;10.682;2023-02-27T03:19:51;3.17;;;2.35;;
57155;SDS011;43023;59.928;10.682;2023-02-27T03:22:25;2.85;;;2.17;;
57155;SDS011;43023;59.928;10.682;2023-02-27T03:24:53;3.00;;;2.20;;
57155;SDS011;43023;59.928;10.682;2023-02-27T03:27:20;2.97;;;2.20;;
57155;SDS011;43023;59.928;10.682;2023-02-27T03:29:49;2.92;;;1.77;;
57155;SDS011;43023;59.928;10.682;2023-02-27T03:32:20;2.30;;;1.80;;
57155;SDS011;43023;59.928;10.682;2023-02-27T03:34:47;2.45;;;2.03;;
57155;SDS011;43023;59.928;10.682;2023-02-27T03:47:35;2.30;;;1.88;;
57155;SDS011;43023;59.928;10.682;2023-02-27T03:50:04;2.70;;;1.83;;
57155;SDS011;43023;59.928;10.682;2023-02-27T03:52:30;2.95;;;1.90;;
57155;SDS011;43023;59.928;10.682;2023-02-27T03:54:59;3.10;;;2.00;;
57155;SDS011;43023;59.928;10.682;2023-02-27T03:57:26;2.00;;;1.75;;
57155;SDS011;43023;59.928;10.682;2023-02-27T03:59:53;2.35;;;2.10;;
57155;SDS011;43023;59.928;10.682;2023-02-27T04:02:19;2.33;;;1.92;;
57155;SDS011;43023;59.928;10.682;2023-02-27T04:04:46;2.28;;;1.65;;
57155;SDS011;43023;59.928;10.682;2023-02-27T04:10:03;2.63;;;1.98;;
57155;SDS011;43023;59.928;10.682;2023-02-27T04:15:13;2.20;;;1.77;;
57155;SDS011;43023;59.928;10.682;2023-02-27T04:20:13;2.80;;;1.98;;
57155;SDS011;43023;59.928;10.682;2023-02-27T04:22:45;2.35;;;1.48;;
57155;SDS011;43023;59.928;10.682;2023-02-27T04:27:50;3.03;;;2.10;;
57155;SDS011;43023;59.928;10.682;2023-02-27T04:30:28;2.08;;;1.58;;
57155;SDS011;43023;59.928;10.682;2023-02-27T04:32:58;3.28;;;1.60;;
57155;SDS011;43023;59.928;10.682;2023-02-27T04:41:31;2.60;;;1.35;;
57155;SDS011;43023;59.928;10.682;2023-02-27T04:43:55;1.80;;;1.58;;
57155;SDS011;43023;59.928;10.682;2023-02-27T04:46:23;1.30;;;1.20;;
57155;SDS011;43023;59.928;10.682;2023-02-27T04:48:51;1.83;;;1.50;;
57155;SDS011;43023;59.928;10.682;2023-02-27T04:51:20;2.45;;;1.63;;
57155;SDS011;43023;59.928;10.682;2023-02-27T04:56:44;2.17;;;1.40;;
57155;SDS011;43023;59.928;10.682;2023-02-27T04:59:23;1.27;;;1.17;;
57155;SDS011;43023;59.928;10.682;2023-02-27T05:01:55;1.63;;;1.33;;
57155;SDS011;43023;59.928;10.682;2023-02-27T05:04:23;2.53;;;1.50;;
57155;SDS011;43023;59.928;10.682;2023-02-27T05:06:50;1.77;;;1.63;;
57155;SDS011;43023;59.928;10.682;2023-02-27T05:12:02;1.83;;;1.33;;
57155;SDS011;43023;59.928;10.682;2023-02-27T05:14:32;1.23;;;1.10;;
57155;SDS011;43023;59.928;10.682;2023-02-27T05:17:02;2.00;;;1.20;;
57155;SDS011;43023;59.928;10.682;2023-02-27T05:19:29;1.60;;;1.30;;
57155;SDS011;43023;59.928;10.682;2023-02-27T05:31:54;1.92;;;0.90;;
57155;SDS011;43023;59.928;10.682;2023-02-27T05:34:23;1.98;;;1.38;;
57155;SDS011;43023;59.928;10.682;2023-02-27T05:37:12;1.50;;;1.25;;
57155;SDS011;43023;59.928;10.682;2023-02-27T05:39:37;2.25;;;1.40;;
57155;SDS011;43023;59.928;10.682;2023-02-27T05:42:07;1.40;;;1.30;;
57155;SDS011;43023;59.928;10.682;2023-02-27T05:44:36;1.25;;;1.10;;
57155;SDS011;43023;59.928;10.682;2023-02-27T05:47:05;1.70;;;1.10;;
57155;SDS011;43023;59.928;10.682;2023-02-27T05:49:33;3.60;;;1.30;;
57155;SDS011;43023;59.928;10.682;2023-02-27T05:52:02;1.50;;;1.17;;
57155;SDS011;43023;59.928;10.682;2023-02-27T05:54:37;1.42;;;1.10;;
57155;SDS011;43023;59.928;10.682;2023-02-27T05:57:06;2.35;;;1.20;;
57155;SDS011;43023;59.928;10.682;2023-02-27T06:02:03;2.47;;;1.27;;
57155;SDS011;43023;59.928;10.682;2023-02-27T06:04:29;1.05;;;0.98;;
57155;SDS011;43023;59.928;10.682;2023-02-27T06:06:56;1.40;;;1.00;;
57155;SDS011;43023;59.928;10.682;2023-02-27T06:09:22;2.85;;;1.30;;
57155;SDS011;43023;59.928;10.682;2023-02-27T06:11:49;1.50;;;1.15;;
57155;SDS011;43023;59.928;10.682;2023-02-27T06:14:15;2.13;;;1.08;;
57155;SDS011;43023;59.928;10.682;2023-02-27T06:16:41;1.58;;;1.02;;
57155;SDS011;43023;59.928;10.682;2023-02-27T06:19:07;1.05;;;0.95;;
57155;SDS011;43023;59.928;10.682;2023-02-27T06:21:33;3.15;;;1.20;;
57155;SDS011;43023;59.928;10.682;2023-02-27T06:23:59;1.13;;;1.02;;
57155;SDS011;43023;59.928;10.682;2023-02-27T06:26:25;2.28;;;0.90;;
57155;SDS011;43023;59.928;10.682;2023-02-27T06:28:51;3.33;;;1.38;;
57155;SDS011;43023;59.928;10.682;2023-02-27T06:31:17;3.58;;;1.30;;
57155;SDS011;43023;59.928;10.682;2023-02-27T06:33:43;2.45;;;1.40;;
57155;SDS011;43023;59.928;10.682;2023-02-27T06:36:09;3.13;;;1.52;;
57155;SDS011;43023;59.928;10.682;2023-02-27T06:38:35;1.65;;;1.35;;
57155;SDS011;43023;59.928;10.682;2023-02-27T06:41:01;1.70;;;1.00;;
57155;SDS011;43023;59.928;10.682;2023-02-27T06:43:28;1.83;;;1.02;;
57155;SDS011;43023;59.928;10.682;2023-02-27T06:45:58;2.80;;;1.33;;
57155;SDS011;43023;59.928;10.682;2023-02-27T06:48:24;3.03;;;1.13;;
57155;SDS011;43023;59.928;10.682;2023-02-27T06:50:51;3.22;;;1.23;;
57155;SDS011;43023;59.928;10.682;2023-02-27T06:53:17;3.20;;;0.90;;
57155;SDS011;43023;59.928;10.682;2023-02-27T06:55:43;2.97;;;1.65;;
57155;SDS011;43023;59.928;10.682;2023-02-27T06:58:10;3.05;;;1.02;;
57155;SDS011;43023;59.928;10.682;2023-02-27T07:00:36;3.67;;;1.30;;
57155;SDS011;43023;59.928;10.682;2023-02-27T07:03:02;5.45;;;1.20;;
57155;SDS011;43023;59.928;10.682;2023-02-27T07:05:29;2.70;;;1.17;;
57155;SDS011;43023;59.928;10.682;2023-02-27T07:07:55;5.07;;;1.17;;
57155;SDS011;43023;59.928;10.682;2023-02-27T07:10:22;3.05;;;1.50;;
57155;SDS011;43023;59.928;10.682;2023-02-27T07:12:48;3.78;;;1.67;;
57155;SDS011;43023;59.928;10.682;2023-02-27T07:15:14;2.17;;;1.00;;
57155;SDS011;43023;59.928;10.682;2023-02-27T07:17:40;2.15;;;1.00;;
57155;SDS011;43023;59.928;10.682;2023-02-27T07:20:07;3.58;;;1.23;;
57155;SDS011;43023;59.928;10.682;2023-02-27T07:22:35;1.25;;;0.88;;
57155;SDS011;43023;59.928;10.682;2023-02-27T07:25:01;1.42;;;1.00;;
57155;SDS011;43023;59.928;10.682;2023-02-27T07:27:27;2.20;;;1.20;;
57155;SDS011;43023;59.928;10.682;2023-02-27T07:29:54;1.95;;;1.10;;
57155;SDS011;43023;59.928;10.682;2023-02-27T07:32:20;2.00;;;1.30;;
57155;SDS011;43023;59.928;10.682;2023-02-27T07:34:46;1.55;;;1.23;;
57155;SDS011;43023;59.928;10.682;2023-02-27T07:37:12;5.47;;;1.10;;
57155;SDS011;43023;59.928;10.682;2023-02-27T07:39:38;1.70;;;1.00;;
57155;SDS011;43023;59.928;10.682;2023-02-27T07:42:04;1.95;;;1.00;;
57155;SDS011;43023;59.928;10.682;2023-02-27T07:44:31;3.75;;;1.30;;
57155;SDS011;43023;59.928;10.682;2023-02-27T07:46:57;0.80;;;0.77;;
57155;SDS011;43023;59.928;10.682;2023-02-27T07:49:23;5.18;;;1.30;;
57155;SDS011;43023;59.928;10.682;2023-02-27T07:51:49;0.77;;;0.77;;
57155;SDS011;43023;59.928;10.682;2023-02-27T07:54:15;2.17;;;0.88;;
57155;SDS011;43023;59.928;10.682;2023-02-27T07:56:42;1.20;;;1.10;;
57155;SDS011;43023;59.928;10.682;2023-02-27T07:59:08;3.08;;;1.23;;
57155;SDS011;43023;59.928;10.682;2023-02-27T08:01:34;3.13;;;1.20;;
57155;SDS011;43023;59.928;10.682;2023-02-27T08:04:00;4.63;;;1.08;;
57155;SDS011;43023;59.928;10.682;2023-02-27T08:06:26;2.38;;;1.02;;
57155;SDS011;43023;59.928;10.682;2023-02-27T08:08:52;3.08;;;0.98;;
57155;SDS011;43023;59.928;10.682;2023-02-27T08:11:18;0.95;;;0.82;;
57155;SDS011;43023;59.928;10.682;2023-02-27T08:13:44;1.67;;;1.25;;
57155;SDS011;43023;59.928;10.682;2023-02-27T08:16:11;4.03;;;0.88;;
57155;SDS011;43023;59.928;10.682;2023-02-27T08:18:37;2.08;;;1.23;;
57155;SDS011;43023;59.928;10.682;2023-02-27T08:21:03;2.60;;;1.02;;
57155;SDS011;43023;59.928;10.682;2023-02-27T08:23:30;4.03;;;1.27;;
57155;SDS011;43023;59.928;10.682;2023-02-27T08:25:56;1.02;;;0.80;;
57155;SDS011;43023;59.928;10.682;2023-02-27T08:28:23;1.27;;;0.90;;
57155;SDS011;43023;59.928;10.682;2023-02-27T08:30:49;2.55;;;1.23;;
57155;SDS011;43023;59.928;10.682;2023-02-27T08:33:15;1.67;;;1.40;;
57155;SDS011;43023;59.928;10.682;2023-02-27T08:35:41;1.35;;;1.10;;
57155;SDS011;43023;59.928;10.682;2023-02-27T08:38:07;4.97;;;0.82;;
57155;SDS011;43023;59.928;10.682;2023-02-27T08:40:33;1.65;;;1.40;;
57155;SDS011;43023;59.928;10.682;2023-02-27T08:43:00;1.80;;;0.93;;
57155;SDS011;43023;59.928;10.682;2023-02-27T08:45:26;2.30;;;1.25;;
57155;SDS011;43023;59.928;10.682;2023-02-27T08:47:52;2.65;;;1.23;;
57155;SDS011;43023;59.928;10.682;2023-02-27T08:50:18;4.07;;;1.13;;
57155;SDS011;43023;59.928;10.682;2023-02-27T08:52:44;1.63;;;0.93;;
57155;SDS011;43023;59.928;10.682;2023-02-27T08:55:10;2.22;;;1.08;;
57155;SDS011;43023;59.928;10.682;2023-02-27T08:57:36;3.70;;;1.40;;
57155;SDS011;43023;59.928;10.682;2023-02-27T09:00:03;4.45;;;1.38;;
57155;SDS011;43023;59.928;10.682;2023-02-27T09:02:32;3.88;;;1.40;;
57155;SDS011;43023;59.928;10.682;2023-02-27T09:04:59;1.95;;;1.00;;
57155;SDS011;43023;59.928;10.682;2023-02-27T09:07:25;2.42;;;1.40;;
57155;SDS011;43023;59.928;10.682;2023-02-27T09:09:52;2.03;;;1.05;;
57155;SDS011;43023;59.928;10.682;2023-02-27T09:12:18;1.55;;;1.02;;
57155;SDS011;43023;59.928;10.682;2023-02-27T09:14:45;1.17;;;0.95;;
57155;SDS011;43023;59.928;10.682;2023-02-27T09:17:11;1.45;;;1.25;;
57155;SDS011;43023;59.928;10.682;2023-02-27T09:19:37;2.17;;;1.13;;
57155;SDS011;43023;59.928;10.682;2023-02-27T09:22:03;2.30;;;1.42;;
57155;SDS011;43023;59.928;10.682;2023-02-27T09:24:29;2.35;;;1.77;;
57155;SDS011;43023;59.928;10.682;2023-02-27T09:26:56;1.30;;;1.20;;
57155;SDS011;43023;59.928;10.682;2023-02-27T09:29:22;2.05;;;1.08;;
57155;SDS011;43023;59.928;10.682;2023-02-27T09:31:49;2.78;;;1.30;;
57155;SDS011;43023;59.928;10.682;2023-02-27T09:34:15;2.03;;;1.05;;
57155;SDS011;43023;59.928;10.682;2023-02-27T09:36:41;1.70;;;0.93;;
57155;SDS011;43023;59.928;10.682;2023-02-27T09:39:08;2.58;;;1.33;;
57155;SDS011;43023;59.928;10.682;2023-02-27T09:46:58;3.38;;;1.50;;
57155;SDS011;43023;59.928;10.682;2023-02-27T09:49:25;2.70;;;1.33;;
57155;SDS011;43023;59.928;10.682;2023-02-27T09:51:52;2.10;;;1.52;;
57155;SDS011;43023;59.928;10.682;2023-02-27T09:54:19;2.58;;;1.30;;
57155;SDS011;43023;59.928;10.682;2023-02-27T09:59:33;3.00;;;1.30;;
57155;SDS011;43023;59.928;10.682;2023-02-27T10:02:32;1.63;;;1.10;;
57155;SDS011;43023;59.928;10.682;2023-02-27T10:07:24;1.73;;;1.13;;
57155;SDS011;43023;59.928;10.682;2023-02-27T10:09:59;1.45;;;1.10;;
57155;SDS011;43023;59.928;10.682;2023-02-27T10:15:24;3.95;;;1.48;;
57155;SDS011;43023;59.928;10.682;2023-02-27T10:18:11;2.10;;;1.63;;
57155;SDS011;43023;59.928;10.682;2023-02-27T10:20:42;1.88;;;1.50;;
57155;SDS011;43023;59.928;10.682;2023-02-27T10:23:12;2.13;;;1.52;;
57155;SDS011;43023;59.928;10.682;2023-02-27T10:28:11;1.38;;;1.25;;
57155;SDS011;43023;59.928;10.682;2023-02-27T10:30:37;1.85;;;1.23;;
57155;SDS011;43023;59.928;10.682;2023-02-27T10:33:09;1.42;;;1.08;;
57155;SDS011;43023;59.928;10.682;2023-02-27T10:35:37;1.40;;;1.17;;
57155;SDS011;43023;59.928;10.682;2023-02-27T10:40:48;2.40;;;1.38;;
57155;SDS011;43023;59.928;10.682;2023-02-27T10:43:16;2.28;;;1.50;;
57155;SDS011;43023;59.928;10.682;2023-02-27T10:45:43;2.22;;;1.38;;
57155;SDS011;43023;59.928;10.682;2023-02-27T10:48:09;2.65;;;1.35;;
57155;SDS011;43023;59.928;10.682;2023-02-27T10:50:37;1.73;;;1.42;;
57155;SDS011;43023;59.928;10.682;2023-02-27T10:53:06;2.78;;;1.13;;
57155;SDS011;43023;59.928;10.682;2023-02-27T10:55:33;1.15;;;1.05;;
57155;SDS011;43023;59.928;10.682;2023-02-27T10:58:01;2.38;;;1.25;;
57155;SDS011;43023;59.928;10.682;2023-02-27T11:00:39;3.70;;;1.40;;
57155;SDS011;43023;59.928;10.682;2023-02-27T11:03:05;1.85;;;1.15;;
57155;SDS011;43023;59.928;10.682;2023-02-27T11:05:33;2.28;;;1.10;;
57155;SDS011;43023;59.928;10.682;2023-02-27T11:08:10;1.67;;;1.27;;
57155;SDS011;43023;59.928;10.682;2023-02-27T11:10:37;3.15;;;1.73;;
57155;SDS011;43023;59.928;10.682;2023-02-27T11:18:35;1.48;;;1.33;;
57155;SDS011;43023;59.928;10.682;2023-02-27T11:21:16;1.40;;;0.90;;
57155;SDS011;43023;59.928;10.682;2023-02-27T11:26:32;2.75;;;1.08;;
57155;SDS011;43023;59.928;10.682;2023-02-27T11:31:39;1.42;;;1.30;;
57155;SDS011;43023;59.928;10.682;2023-02-27T11:34:13;2.05;;;1.20;;
57155;SDS011;43023;59.928;10.682;2023-02-27T11:36:47;1.37;;;1.10;;
57155;SDS011;43023;59.928;10.682;2023-02-27T11:42:04;2.63;;;1.42;;
57155;SDS011;43023;59.928;10.682;2023-02-27T11:44:31;1.85;;;1.20;;
57155;SDS011;43023;59.928;10.682;2023-02-27T11:47:09;2.75;;;1.25;;
57155;SDS011;43023;59.928;10.682;2023-02-27T11:49:39;1.52;;;1.20;;
57155;SDS011;43023;59.928;10.682;2023-02-27T11:52:18;4.55;;;0.98;;
57155;SDS011;43023;59.928;10.682;2023-02-27T11:54:49;1.25;;;1.15;;
57155;SDS011;43023;59.928;10.682;2023-02-27T11:57:24;3.35;;;1.10;;
57155;SDS011;43023;59.928;10.682;2023-02-27T11:59:54;1.52;;;0.95;;
57155;SDS011;43023;59.928;10.682;2023-02-27T12:02:32;1.10;;;1.00;;
57155;SDS011;43023;59.928;10.682;2023-02-27T12:05:05;2.65;;;1.20;;
57155;SDS011;43023;59.928;10.682;2023-02-27T12:07:47;1.95;;;1.20;;
57155;SDS011;43023;59.928;10.682;2023-02-27T12:10:19;2.10;;;1.75;;
57155;SDS011;43023;59.928;10.682;2023-02-27T12:13:02;1.48;;;0.82;;
57155;SDS011;43023;59.928;10.682;2023-02-27T12:20:51;1.55;;;1.38;;
57155;SDS011;43023;59.928;10.682;2023-02-27T12:23:28;1.13;;;1.00;;
57155;SDS011;43023;59.928;10.682;2023-02-27T12:25:59;1.17;;;1.08;;
57155;SDS011;43023;59.928;10.682;2023-02-27T12:33:47;0.90;;;0.90;;
57155;SDS011;43023;59.928;10.682;2023-02-27T12:36:14;0.65;;;0.65;;
57155;SDS011;43023;59.928;10.682;2023-02-27T12:38:40;0.93;;;0.80;;
57155;SDS011;43023;59.928;10.682;2023-02-27T12:44:01;0.60;;;0.60;;
57155;SDS011;43023;59.928;10.682;2023-02-27T12:49:09;0.98;;;0.80;;
57155;SDS011;43023;59.928;10.682;2023-02-27T13:01:51;0.68;;;0.68;;
57155;SDS011;43023;59.928;10.682;2023-02-27T13:09:53;1.00;;;0.73;;
57155;SDS011;43023;59.928;10.682;2023-02-27T13:15:03;1.98;;;0.73;;
57155;SDS011;43023;59.928;10.682;2023-02-27T13:17:41;1.05;;;0.70;;
57155;SDS011;43023;59.928;10.682;2023-02-27T13:20:26;1.05;;;0.65;;
57155;SDS011;43023;59.928;10.682;2023-02-27T13:25:23;0.93;;;0.70;;
57155;SDS011;43023;59.928;10.682;2023-02-27T13:27:50;0.55;;;0.55;;
57155;SDS011;43023;59.928;10.682;2023-02-27T13:32:58;2.55;;;0.75;;
57155;SDS011;43023;59.928;10.682;2023-02-27T13:38:04;1.48;;;0.68;;
57155;SDS011;43023;59.928;10.682;2023-02-27T13:40:48;3.88;;;0.93;;
57155;SDS011;43023;59.928;10.682;2023-02-27T13:45:57;1.10;;;1.00;;
57155;SDS011;43023;59.928;10.682;2023-02-27T13:50:59;0.52;;;0.52;;
57155;SDS011;43023;59.928;10.682;2023-02-27T13:53:25;2.05;;;0.70;;
57155;SDS011;43023;59.928;10.682;2023-02-27T13:56:26;1.63;;;0.82;;
57155;SDS011;43023;59.928;10.682;2023-02-27T13:58:46;1.08;;;0.73;;
57155;SDS011;43023;59.928;10.682;2023-02-27T14:01:17;1.88;;;0.90;;
57155;SDS011;43023;59.928;10.682;2023-02-27T14:03:54;1.45;;;0.80;;
57155;SDS011;43023;59.928;10.682;2023-02-27T14:06:23;2.15;;;0.75;;
57155;SDS011;43023;59.928;10.682;2023-02-27T14:08:49;0.95;;;0.60;;
57155;SDS011;43023;59.928;10.682;2023-02-27T14:18:59;0.98;;;0.65;;
57155;SDS011;43023;59.928;10.682;2023-02-27T14:24:13;1.17;;;0.50;;
57155;SDS011;43023;59.928;10.682;2023-02-27T14:26:39;0.60;;;0.50;;
57155;SDS011;43023;59.928;10.682;2023-02-27T14:29:13;2.40;;;0.55;;
57155;SDS011;43023;59.928;10.682;2023-02-27T14:31:42;0.45;;;0.45;;
57155;SDS011;43023;59.928;10.682;2023-02-27T14:34:17;1.95;;;0.70;;
57155;SDS011;43023;59.928;10.682;2023-02-27T14:36:46;1.08;;;0.57;;
57155;SDS011;43023;59.928;10.682;2023-02-27T14:39:27;1.85;;;0.88;;
57155;SDS011;43023;59.928;10.682;2023-02-27T14:42:07;0.40;;;0.40;;
57155;SDS011;43023;59.928;10.682;2023-02-27T14:44:38;0.43;;;0.43;;
57155;SDS011;43023;59.928;10.682;2023-02-27T14:47:05;0.70;;;0.40;;
57155;SDS011;43023;59.928;10.682;2023-02-27T14:49:36;0.50;;;0.40;;
57155;SDS011;43023;59.928;10.682;2023-02-27T14:52:12;1.48;;;0.55;;
57155;SDS011;43023;59.928;10.682;2023-02-27T14:54:39;0.93;;;0.60;;
57155;SDS011;43023;59.928;10.682;2023-02-27T14:57:05;0.43;;;0.40;;
57155;SDS011;43023;59.928;10.682;2023-02-27T14:59:32;1.95;;;0.57;;
57155;SDS011;43023;59.928;10.682;2023-02-27T15:01:59;1.77;;;0.50;;
57155;SDS011;43023;59.928;10.682;2023-02-27T15:04:28;1.40;;;0.52;;
57155;SDS011;43023;59.928;10.682;2023-02-27T15:06:55;0.60;;;0.60;;
57155;SDS011;43023;59.928;10.682;2023-02-27T15:10:23;1.02;;;0.55;;
57155;SDS011;43023;59.928;10.682;2023-02-27T15:12:17;2.60;;;0.50;;
57155;SDS011;43023;59.928;10.682;2023-02-27T15:15:02;2.47;;;0.40;;
57155;SDS011;43023;59.928;10.682;2023-02-27T15:17:37;4.22;;;0.60;;
57155;SDS011;43023;59.928;10.682;2023-02-27T15:20:19;2.10;;;0.82;;
57155;SDS011;43023;59.928;10.682;2023-02-27T15:22:46;2.83;;;0.57;;
57155;SDS011;43023;59.928;10.682;2023-02-27T15:27:56;2.00;;;0.75;;
57155;SDS011;43023;59.928;10.682;2023-02-27T15:30:24;4.03;;;0.63;;
57155;SDS011;43023;59.928;10.682;2023-02-27T15:32:51;0.40;;;0.40;;
57155;SDS011;43023;59.928;10.682;2023-02-27T15:35:50;0.52;;;0.38;;
57155;SDS011;43023;59.928;10.682;2023-02-27T15:41:10;2.70;;;0.40;;
57155;SDS011;43023;59.928;10.682;2023-02-27T15:43:38;2.15;;;0.73;;
57155;SDS011;43023;59.928;10.682;2023-02-27T15:46:04;2.22;;;0.63;;
57155;SDS011;43023;59.928;10.682;2023-02-27T15:48:31;1.25;;;0.60;;
57155;SDS011;43023;59.928;10.682;2023-02-27T15:50:57;4.97;;;0.70;;
57155;SDS011;43023;59.928;10.682;2023-02-27T15:53:26;1.52;;;0.65;;
57155;SDS011;43023;59.928;10.682;2023-02-27T15:55:56;3.63;;;0.98;;
57155;SDS011;43023;59.928;10.682;2023-02-27T15:58:24;2.10;;;0.50;;
57155;SDS011;43023;59.928;10.682;2023-02-27T16:00:54;1.20;;;0.60;;
57155;SDS011;43023;59.928;10.682;2023-02-27T16:03:24;0.85;;;0.40;;
57155;SDS011;43023;59.928;10.682;2023-02-27T16:05:54;2.67;;;0.70;;
57155;SDS011;43023;59.928;10.682;2023-02-27T16:08:21;5.90;;;0.88;;
57155;SDS011;43023;59.928;10.682;2023-02-27T16:10:47;4.60;;;1.00;;
57155;SDS011;43023;59.928;10.682;2023-02-27T16:13:36;6.80;;;1.60;;
57155;SDS011;43023;59.928;10.682;2023-02-27T16:16:03;11.00;;;2.33;;
57155;SDS011;43023;59.928;10.682;2023-02-27T16:18:31;6.53;;;1.67;;
57155;SDS011;43023;59.928;10.682;2023-02-27T16:21:15;5.85;;;1.67;;
57155;SDS011;43023;59.928;10.682;2023-02-27T16:23:42;6.47;;;1.52;;
57155;SDS011;43023;59.928;10.682;2023-02-27T16:29:15;3.50;;;1.63;;
57155;SDS011;43023;59.928;10.682;2023-02-27T16:32:21;7.35;;;2.13;;
57155;SDS011;43023;59.928;10.682;2023-02-27T16:34:35;4.70;;;1.42;;
57155;SDS011;43023;59.928;10.682;2023-02-27T16:37:24;5.35;;;1.75;;
57155;SDS011;43023;59.928;10.682;2023-02-27T16:39:51;9.85;;;1.58;;
57155;SDS011;43023;59.928;10.682;2023-02-27T16:42:18;2.45;;;1.27;;
57155;SDS011;43023;59.928;10.682;2023-02-27T16:44:44;4.82;;;1.60;;
57155;SDS011;43023;59.928;10.682;2023-02-27T16:47:11;2.90;;;1.23;;
57155;SDS011;43023;59.928;10.682;2023-02-27T16:49:37;11.05;;;2.83;;
57155;SDS011;43023;59.928;10.682;2023-02-27T16:52:05;10.25;;;2.20;;
57155;SDS011;43023;59.928;10.682;2023-02-27T16:54:31;9.13;;;2.50;;
57155;SDS011;43023;59.928;10.682;2023-02-27T16:56:59;10.90;;;2.33;;
57155;SDS011;43023;59.928;10.682;2023-02-27T16:59:29;9.02;;;1.75;;
57155;SDS011;43023;59.928;10.682;2023-02-27T17:01:57;8.73;;;2.17;;
57155;SDS011;43023;59.928;10.682;2023-02-27T17:04:24;6.32;;;1.77;;
57155;SDS011;43023;59.928;10.682;2023-02-27T17:06:51;6.20;;;1.52;;
57155;SDS011;43023;59.928;10.682;2023-02-27T17:09:17;4.05;;;1.85;;
57155;SDS011;43023;59.928;10.682;2023-02-27T17:11:43;4.70;;;1.65;;
57155;SDS011;43023;59.928;10.682;2023-02-27T17:14:09;5.63;;;1.80;;
57155;SDS011;43023;59.928;10.682;2023-02-27T17:16:35;4.78;;;1.70;;
57155;SDS011;43023;59.928;10.682;2023-02-27T17:19:01;3.30;;;1.70;;
57155;SDS011;43023;59.928;10.682;2023-02-27T17:21:27;3.00;;;1.45;;
57155;SDS011;43023;59.928;10.682;2023-02-27T17:23:53;6.22;;;1.85;;
57155;SDS011;43023;59.928;10.682;2023-02-27T17:26:19;4.60;;;1.80;;
57155;SDS011;43023;59.928;10.682;2023-02-27T17:28:46;3.65;;;1.75;;
57155;SDS011;43023;59.928;10.682;2023-02-27T17:31:13;4.40;;;1.85;;
57155;SDS011;43023;59.928;10.682;2023-02-27T17:33:43;6.22;;;1.50;;
57155;SDS011;43023;59.928;10.682;2023-02-27T17:36:09;3.80;;;2.03;;
57155;SDS011;43023;59.928;10.682;2023-02-27T17:38:37;5.22;;;2.00;;
57155;SDS011;43023;59.928;10.682;2023-02-27T17:41:07;7.22;;;2.58;;
57155;SDS011;43023;59.928;10.682;2023-02-27T17:43:34;4.35;;;1.75;;
57155;SDS011;43023;59.928;10.682;2023-02-27T17:46:00;4.32;;;2.10;;
57155;SDS011;43023;59.928;10.682;2023-02-27T17:48:27;10.57;;;2.30;;
57155;SDS011;43023;59.928;10.682;2023-02-27T17:50:53;4.43;;;1.92;;
57155;SDS011;43023;59.928;10.682;2023-02-27T17:53:19;3.67;;;1.80;;
57155;SDS011;43023;59.928;10.682;2023-02-27T17:55:45;2.67;;;1.65;;
57155;SDS011;43023;59.928;10.682;2023-02-27T17:58:11;5.93;;;1.75;;
57155;SDS011;43023;59.928;10.682;2023-02-27T18:00:37;6.00;;;2.15;;
57155;SDS011;43023;59.928;10.682;2023-02-27T18:03:03;4.38;;;2.35;;
57155;SDS011;43023;59.928;10.682;2023-02-27T18:05:30;3.63;;;2.20;;
57155;SDS011;43023;59.928;10.682;2023-02-27T18:07:57;7.82;;;2.60;;
57155;SDS011;43023;59.928;10.682;2023-02-27T18:10:23;4.25;;;2.17;;
57155;SDS011;43023;59.928;10.682;2023-02-27T18:12:49;5.95;;;2.30;;
57155;SDS011;43023;59.928;10.682;2023-02-27T18:15:15;5.75;;;2.05;;
57155;SDS011;43023;59.928;10.682;2023-02-27T18:17:42;3.15;;;1.77;;
57155;SDS011;43023;59.928;10.682;2023-02-27T18:20:08;3.40;;;2.00;;
57155;SDS011;43023;59.928;10.682;2023-02-27T18:22:35;3.65;;;2.05;;
57155;SDS011;43023;59.928;10.682;2023-02-27T18:25:01;4.72;;;2.15;;
57155;SDS011;43023;59.928;10.682;2023-02-27T18:27:27;5.07;;;2.72;;
57155;SDS011;43023;59.928;10.682;2023-02-27T18:29:53;3.28;;;1.92;;
57155;SDS011;43023;59.928;10.682;2023-02-27T18:32:21;2.88;;;1.90;;
57155;SDS011;43023;59.928;10.682;2023-02-27T18:34:47;6.00;;;2.53;;
57155;SDS011;43023;59.928;10.682;2023-02-27T18:37:13;4.03;;;1.98;;
57155;SDS011;43023;59.928;10.682;2023-02-27T18:39:39;4.53;;;2.50;;
57155;SDS011;43023;59.928;10.682;2023-02-27T18:42:06;11.60;;;3.88;;
57155;SDS011;43023;59.928;10.682;2023-02-27T18:44:32;15.00;;;4.25;;
57155;SDS011;43023;59.928;10.682;2023-02-27T18:46:58;12.10;;;4.25;;
57155;SDS011;43023;59.928;10.682;2023-02-27T18:49:25;12.32;;;4.22;;
57155;SDS011;43023;59.928;10.682;2023-02-27T18:51:51;13.57;;;3.92;;
57155;SDS011;43023;59.928;10.682;2023-02-27T18:54:17;9.85;;;3.13;;
57155;SDS011;43023;59.928;10.682;2023-02-27T18:56:43;8.15;;;3.10;;
57155;SDS011;43023;59.928;10.682;2023-02-27T18:59:12;14.05;;;3.58;;
57155;SDS011;43023;59.928;10.682;2023-02-27T19:01:38;10.15;;;3.67;;
57155;SDS011;43023;59.928;10.682;2023-02-27T19:04:05;13.55;;;3.80;;
57155;SDS011;43023;59.928;10.682;2023-02-27T19:06:37;14.85;;;4.13;;
57155;SDS011;43023;59.928;10.682;2023-02-27T19:09:08;14.27;;;4.40;;
57155;SDS011;43023;59.928;10.682;2023-02-27T19:11:35;14.45;;;4.18;;
57155;SDS011;43023;59.928;10.682;2023-02-27T19:14:02;10.80;;;3.90;;
57155;SDS011;43023;59.928;10.682;2023-02-27T19:16:28;11.48;;;4.07;;
57155;SDS011;43023;59.928;10.682;2023-02-27T19:18:55;17.75;;;3.90;;
57155;SDS011;43023;59.928;10.682;2023-02-27T19:21:22;8.80;;;3.35;;
57155;SDS011;43023;59.928;10.682;2023-02-27T19:23:48;11.95;;;3.60;;
57155;SDS011;43023;59.928;10.682;2023-02-27T19:26:14;12.63;;;4.05;;
57155;SDS011;43023;59.928;10.682;2023-02-27T19:28:40;10.20;;;3.45;;
57155;SDS011;43023;59.928;10.682;2023-02-27T19:31:07;15.15;;;4.35;;
57155;SDS011;43023;59.928;10.682;2023-02-27T19:33:33;10.25;;;3.92;;
57155;SDS011;43023;59.928;10.682;2023-02-27T19:36:03;7.72;;;3.63;;
57155;SDS011;43023;59.928;10.682;2023-02-27T19:38:29;9.50;;;3.60;;
57155;SDS011;43023;59.928;10.682;2023-02-27T19:40:58;9.43;;;4.28;;
57155;SDS011;43023;59.928;10.682;2023-02-27T19:43:24;9.77;;;3.28;;
57155;SDS011;43023;59.928;10.682;2023-02-27T19:45:50;6.10;;;2.65;;
57155;SDS011;43023;59.928;10.682;2023-02-27T19:48:17;9.90;;;3.45;;
57155;SDS011;43023;59.928;10.682;2023-02-27T19:50:43;8.55;;;3.50;;
57155;SDS011;43023;59.928;10.682;2023-02-27T19:53:09;6.63;;;3.78;;
57155;SDS011;43023;59.928;10.682;2023-02-27T19:55:36;8.80;;;3.28;;
57155;SDS011;43023;59.928;10.682;2023-02-27T19:58:02;9.20;;;3.08;;
57155;SDS011;43023;59.928;10.682;2023-02-27T20:00:28;8.85;;;3.30;;
57155;SDS011;43023;59.928;10.682;2023-02-27T20:02:55;6.07;;;3.28;;
57155;SDS011;43023;59.928;10.682;2023-02-27T20:05:21;8.38;;;3.65;;
57155;SDS011;43023;59.928;10.682;2023-02-27T20:07:48;11.90;;;3.20;;
57155;SDS011;43023;59.928;10.682;2023-02-27T20:10:14;8.15;;;3.53;;